Terminal Aerodrome Forecast
Issued by NWS Wilmington, NC

Home | Current Version | Previous Version | Text Only | Print | Product List | Glossary On
Versions: 1 2 3 4 5 6 7 8 9 10 11 12 13 14 15
000
FTUS42 KILM 280522
TAFFLO
TAF
KFLO 280522Z 2806/2906 VRB03KT P6SM FEW060 BKN120
      TEMPO 2809/2812 3SM BR SCT006
     FM281300 10004KT P6SM SCT020=

USA.gov is the U.S. government's official web portal to all federal, state and local government web resources and services.